Webcam Richtung Westen

Webcam27

Webcam Richtung Norden

Webcam36

Webcam Richtung Osten

Webcam09

Wetter(Würzburg):
230230Z AUTO 04004G06KT 52KM FEW130 BKN150 OVC360 12/08 Q1009
		
Mon 23.05.2022, 02:30 UTC

Sichtweite bis zu 52 km
Wind aus 40° mit 04kt, in Böen bis zu 06kt
vereinzelte Wolken (1-2 Achtel) bei 13000 Fuß
unterbrochene Wolkendecke (5-7 Achtel) bei 15000 Fuß
bedeckter Himmel (8 Achtel) bei 36000 Fuß
Temperatur: 12 °C
Taupunkt: 8 °C
QNH: 1009 hPa
                         Heute        Morgen
                         23.05        24.05
--------------------------------------------
Beginn der Dämmerung     02:45        02:43
Sonnenaufgang            03:25        03:24
Sonnenuntergang          19:08        19:10
Ende der Dämmerung       19:49        19:50

Alle Zeiten in UTC